Time;durP1;ratioP1;P1;durP2;ratioP2;P2;SDS_P1;SDS_P2;PMS_P1;PMS_P2;Temp;Humidity;BMP_temperature;BMP_pressure;BME280_temperature;BME280_humidity;BME280_pressure;Samples;Min_cycle;Max_cycle;Signal;HPM_P1;HPM_P2
2022/01/30 00:01:28;;;;;;;7.40;2.73;;;0.30;99.90;;;;;;4993746;28;20602;-58
2022/01/30 00:03:54;;;;;;;5.80;2.70;;;0.30;99.90;;;;;;4993634;28;20703;-58
2022/01/30 00:06:20;;;;;;;7.83;3.20;;;0.30;99.90;;;;;;4994019;28;20271;-58
2022/01/30 00:08:47;;;;;;;6.57;3.10;;;0.40;99.90;;;;;;4993757;28;20303;-56
2022/01/30 00:11:18;;;;;;;8.13;2.70;;;0.50;99.90;;;;;;4993938;28;20200;-57
2022/01/30 00:13:44;;;;;;;7.67;3.10;;;0.40;99.90;;;;;;5001729;28;20201;-60
2022/01/30 00:16:11;;;;;;;10.50;3.10;;;0.50;99.90;;;;;;5013327;28;20193;-57
2022/01/30 00:18:52;;;;;;;5.83;2.50;;;0.50;99.90;;;;;;4995286;28;20613;-57
2022/01/30 00:24:03;;;;;;;5.97;2.77;;;0.50;99.90;;;;;;5013240;28;20183;-59
2022/01/30 00:26:32;;;;;;;8.77;2.87;;;0.50;99.90;;;;;;4995600;28;20184;-56
2022/01/30 00:28:58;;;;;;;7.20;2.80;;;0.60;99.90;;;;;;5012866;28;20310;-58
2022/01/30 00:31:26;;;;;;;7.83;2.90;;;0.70;99.90;;;;;;5012648;28;20192;-57
2022/01/30 00:33:52;;;;;;;7.50;3.17;;;0.80;99.90;;;;;;5012753;28;20694;-59
2022/01/30 00:36:18;;;;;;;5.83;3.00;;;0.80;99.90;;;;;;5013158;28;20216;-59
2022/01/30 00:38:44;;;;;;;6.57;2.67;;;0.90;99.90;;;;;;5012659;28;20190;-60
2022/01/30 00:41:10;;;;;;;5.13;2.77;;;1.00;99.90;;;;;;4999194;28;20185;-58
2022/01/30 00:43:36;;;;;;;6.47;2.30;;;1.00;99.90;;;;;;4992903;28;20195;-59
2022/01/30 00:46:01;;;;;;;5.63;2.40;;;1.10;99.90;;;;;;4975678;28;20210;-59
2022/01/30 00:48:27;;;;;;;3.70;2.33;;;1.20;99.90;;;;;;4993088;28;20218;-58
2022/01/30 00:50:53;;;;;;;5.93;2.43;;;1.20;99.90;;;;;;4975384;28;20244;-60
2022/01/30 00:53:19;;;;;;;5.20;2.40;;;1.20;99.90;;;;;;4993224;28;20212;-58
2022/01/30 00:55:46;;;;;;;4.13;2.50;;;1.30;99.90;;;;;;4992525;28;20241;-57
2022/01/30 00:58:12;;;;;;;7.00;2.23;;;1.40;99.90;;;;;;4992944;28;20202;-57
2022/01/30 01:00:39;;;;;;;5.00;2.33;;;1.40;99.80;;;;;;4992587;28;20245;-57
2022/01/30 01:03:05;;;;;;;4.90;2.40;;;1.40;99.80;;;;;;4993016;28;20218;-58
2022/01/30 01:05:33;;;;;;;4.77;1.87;;;1.40;99.70;;;;;;4975010;28;20225;-58
2022/01/30 01:08:06;;;;;;;4.13;1.90;;;1.50;99.50;;;;;;4992844;28;20310;-60
2022/01/30 01:24:13;;;;;;;4.10;1.60;;;1.60;99.00;;;;;;4951883;29;20199;-58
2022/01/30 01:26:38;;;;;;;3.63;1.93;;;1.60;98.90;;;;;;4998983;28;20289;-60
2022/01/30 01:29:08;;;;;;;5.67;1.67;;;1.60;99.10;;;;;;5012236;28;20245;-59
2022/01/30 01:31:34;;;;;;;3.70;1.60;;;1.60;99.10;;;;;;4994415;28;20275;-57
2022/01/30 01:34:29;;;;;;;4.03;1.73;;;1.60;99.20;;;;;;5012157;28;20213;-59
2022/01/30 01:36:55;;;;;;;3.70;1.80;;;1.50;99.30;;;;;;5012285;28;20629;-57
2022/01/30 01:39:20;;;;;;;3.70;1.57;;;1.60;99.30;;;;;;5012074;28;20312;-59
2022/01/30 01:41:46;;;;;;;5.80;1.77;;;1.60;99.50;;;;;;4993035;28;20184;-59
2022/01/30 01:44:17;;;;;;;4.23;1.70;;;1.60;99.50;;;;;;4992306;28;20188;-57
2022/01/30 01:46:44;;;;;;;2.67;1.40;;;1.60;99.80;;;;;;4992152;28;20354;-59
2022/01/30 01:49:18;;;;;;;3.60;1.60;;;1.60;99.90;;;;;;4992400;28;20235;-60
2022/01/30 01:51:49;;;;;;;3.30;1.57;;;1.60;99.90;;;;;;4991889;28;20202;-59
2022/01/30 01:54:15;;;;;;;3.67;1.33;;;1.60;99.90;;;;;;4992280;28;20217;-59
2022/01/30 01:56:41;;;;;;;2.10;1.30;;;1.60;99.90;;;;;;4991872;28;20262;-59
2022/01/30 01:59:07;;;;;;;3.00;1.43;;;1.50;99.90;;;;;;4992573;28;20244;-58
2022/01/30 02:01:32;;;;;;;2.77;1.60;;;1.40;99.90;;;;;;4958382;28;20187;-60
2022/01/30 02:03:58;;;;;;;4.20;1.47;;;1.40;99.90;;;;;;4994821;28;20183;-57
2022/01/30 02:06:26;;;;;;;4.83;1.60;;;1.40;99.90;;;;;;4996154;28;20611;-58
2022/01/30 02:09:00;;;;;;;2.17;1.10;;;1.40;99.90;;;;;;4995977;28;20228;-59
2022/01/30 02:11:37;;;;;;;3.50;1.67;;;1.40;99.90;;;;;;4995843;28;20192;-64
2022/01/30 02:27:26;;;;;;;3.77;1.47;;;1.40;99.90;;;;;;5015293;28;20239;-58
2022/01/30 02:29:52;;;;;;;3.07;1.70;;;1.50;99.90;;;;;;5015126;28;20299;-59
2022/01/30 02:32:19;;;;;;;2.07;1.20;;;1.50;99.90;;;;;;5015409;28;20611;-59
2022/01/30 02:34:45;;;;;;;2.60;1.40;;;1.40;99.90;;;;;;5015188;28;20202;-59
2022/01/30 02:37:13;;;;;;;4.63;1.57;;;1.40;99.90;;;;;;5015430;28;20260;-59
2022/01/30 02:39:39;;;;;;;5.40;1.60;;;1.50;99.90;;;;;;5013365;28;20233;-57
2022/01/30 02:42:05;;;;;;;3.83;1.43;;;1.50;99.90;;;;;;4995525;28;20222;-59
2022/01/30 02:44:43;;;;;;;4.10;1.20;;;1.50;99.90;;;;;;4994857;28;20187;-59
2022/01/30 02:47:22;;;;;;;2.50;1.40;;;1.60;99.90;;;;;;4995492;28;20191;-58
2022/01/30 02:50:10;;;;;;;2.87;1.70;;;1.50;99.90;;;;;;4977671;28;20306;-59
2022/01/30 02:52:40;;;;;;;2.63;0.90;;;1.50;99.90;;;;;;4994724;28;20627;-59
2022/01/30 02:55:06;;;;;;;4.17;1.03;;;1.60;99.90;;;;;;4994622;28;20226;-59
2022/01/30 02:57:32;;;;;;;2.47;1.10;;;1.60;99.90;;;;;;4993725;28;20643;-58
2022/01/30 02:59:58;;;;;;;2.53;1.37;;;1.60;99.90;;;;;;4994165;28;20196;-61
2022/01/30 03:02:24;;;;;;;4.17;1.30;;;1.60;99.90;;;;;;4993993;28;20187;-58
2022/01/30 03:04:49;;;;;;;3.20;1.37;;;1.70;99.90;;;;;;4976725;28;20222;-60
2022/01/30 03:07:15;;;;;;;4.97;1.10;;;1.70;99.90;;;;;;4993789;28;20187;-58
2022/01/30 03:09:41;;;;;;;3.60;1.10;;;1.80;99.90;;;;;;4993506;28;20292;-60
2022/01/30 03:12:07;;;;;;;1.57;1.00;;;1.80;99.90;;;;;;4994064;28;20194;-58
2022/01/30 03:14:33;;;;;;;2.37;1.20;;;1.80;99.90;;;;;;5007825;28;20187;-59
2022/01/30 03:17:00;;;;;;;3.10;1.20;;;1.90;99.90;;;;;;5013510;28;20190;-60
2022/01/30 03:19:25;;;;;;;2.43;1.00;;;1.90;99.90;;;;;;5013477;28;20190;-60
2022/01/30 03:21:51;;;;;;;1.40;0.83;;;1.90;99.90;;;;;;5012923;28;20182;-57
2022/01/30 03:24:17;;;;;;;3.80;1.63;;;1.90;99.90;;;;;;5013198;28;20189;-57
2022/01/30 03:26:43;;;;;;;2.00;1.00;;;1.90;99.90;;;;;;5013011;28;20218;-57
2022/01/30 03:29:10;;;;;;;1.80;0.90;;;1.80;99.90;;;;;;5013288;28;20221;-58
2022/01/30 03:31:38;;;;;;;2.03;1.30;;;1.90;99.90;;;;;;5012917;28;20634;-58
2022/01/30 03:34:05;;;;;;;2.57;1.00;;;1.90;99.90;;;;;;5013232;28;20620;-59
2022/01/30 03:36:31;;;;;;;1.30;0.80;;;1.90;99.90;;;;;;5012557;28;20187;-63
2022/01/30 03:38:58;;;;;;;1.43;0.80;;;1.90;99.90;;;;;;5013033;28;20199;-59
2022/01/30 03:41:27;;;;;;;1.87;0.70;;;1.90;99.90;;;;;;4997274;28;20248;-57
2022/01/30 03:43:53;;;;;;;1.00;0.70;;;1.90;99.90;;;;;;4993047;28;20176;-57
2022/01/30 03:46:23;;;;;;;1.87;1.10;;;1.90;99.90;;;;;;4993394;28;20190;-59
2022/01/30 03:48:48;;;;;;;1.77;0.83;;;2.00;99.90;;;;;;4993077;28;20662;-59
2022/01/30 03:51:14;;;;;;;2.53;0.90;;;2.00;99.90;;;;;;4993259;28;20193;-59
2022/01/30 03:53:41;;;;;;;2.03;0.90;;;2.00;99.90;;;;;;4992675;28;20201;-59
2022/01/30 03:56:07;;;;;;;5.23;1.20;;;2.10;99.90;;;;;;4944630;28;1425336;-59
2022/01/30 03:58:34;;;;;;;1.57;0.87;;;2.20;99.90;;;;;;4993570;28;20191;-60
2022/01/30 04:01:00;;;;;;;1.60;0.87;;;2.20;99.90;;;;;;4994291;28;20528;-59
2022/01/30 04:03:26;;;;;;;4.40;1.20;;;2.20;99.90;;;;;;4993868;28;20190;-59
2022/01/30 04:05:52;;;;;;;2.60;1.07;;;2.20;99.90;;;;;;4976384;28;20185;-59
2022/01/30 04:08:18;;;;;;;4.30;1.13;;;2.20;99.90;;;;;;4993792;28;20275;-59
2022/01/30 04:10:44;;;;;;;1.90;0.90;;;2.30;99.90;;;;;;4976145;28;20184;-61
2022/01/30 04:13:10;;;;;;;1.00;0.63;;;2.30;99.90;;;;;;4997469;28;20191;-56
2022/01/30 04:15:36;;;;;;;3.70;0.80;;;2.30;99.90;;;;;;4995551;28;20187;-61
2022/01/30 04:18:03;;;;;;;2.40;0.80;;;2.30;99.90;;;;;;5013005;28;20203;-57
2022/01/30 04:20:29;;;;;;;3.97;1.03;;;2.30;99.90;;;;;;5013160;28;20179;-59
2022/01/30 04:22:55;;;;;;;5.70;1.37;;;2.30;99.90;;;;;;5012606;28;20279;-58
2022/01/30 04:25:22;;;;;;;3.00;0.90;;;2.30;99.90;;;;;;5012454;28;20191;-60
2022/01/30 04:27:47;;;;;;;7.40;1.00;;;2.30;99.90;;;;;;5012482;28;20176;-59
2022/01/30 04:30:14;;;;;;;3.00;1.40;;;2.30;99.90;;;;;;5012983;28;20537;-57
2022/01/30 04:32:43;;;;;;;2.93;1.17;;;2.30;99.90;;;;;;5012681;28;20175;-58
2022/01/30 04:35:26;;;;;;;1.60;0.90;;;2.30;99.90;;;;;;4995936;28;20190;-58
2022/01/30 05:04:18;;;;;;;19.53;6.57;;;2.60;99.90;;;;;;4992846;28;20202;-59
2022/01/30 05:09:20;;;;;;;4.50;2.07;;;2.60;99.80;;;;;;4992348;28;20225;-59
2022/01/30 05:11:45;;;;;;;12.97;3.70;;;2.60;99.70;;;;;;4974624;28;20212;-58
2022/01/30 05:14:13;;;;;;;9.23;3.13;;;2.60;99.70;;;;;;4986608;28;20217;-58
2022/01/30 05:16:39;;;;;;;4.90;1.77;;;2.60;99.80;;;;;;5011732;28;20188;-58
2022/01/30 05:19:06;;;;;;;3.57;1.70;;;2.60;99.80;;;;;;5012400;28;20180;-59
2022/01/30 05:21:31;;;;;;;5.73;1.23;;;2.60;99.90;;;;;;5012495;28;20207;-59
2022/01/30 05:23:58;;;;;;;2.87;1.20;;;2.60;99.90;;;;;;4994336;28;20237;-59
2022/01/30 05:26:26;;;;;;;3.93;1.20;;;2.50;99.90;;;;;;5012095;28;20550;-59
2022/01/30 05:28:52;;;;;;;5.23;1.10;;;2.50;99.90;;;;;;5011635;28;20646;-59
2022/01/30 05:31:18;;;;;;;2.20;1.00;;;2.50;99.90;;;;;;5012225;28;20187;-59
2022/01/30 05:33:44;;;;;;;4.43;0.90;;;2.40;99.90;;;;;;5011850;28;20188;-60
2022/01/30 05:36:10;;;;;;;3.17;1.20;;;2.40;99.90;;;;;;5012138;28;20576;-59
2022/01/30 05:38:36;;;;;;;4.67;1.30;;;2.40;99.90;;;;;;5010838;28;20274;-59
2022/01/30 05:41:02;;;;;;;2.73;1.10;;;2.40;99.90;;;;;;4998552;28;20234;-59
2022/01/30 05:43:31;;;;;;;2.20;1.30;;;2.50;99.90;;;;;;4992348;28;20274;-60
2022/01/30 05:46:10;;;;;;;3.30;1.87;;;2.40;99.90;;;;;;4991849;28;20184;-58
2022/01/30 05:48:36;;;;;;;3.33;1.10;;;2.40;99.90;;;;;;4992368;28;20697;-57
2022/01/30 05:51:02;;;;;;;5.67;1.30;;;2.30;99.90;;;;;;4991962;28;20271;-59
2022/01/30 05:53:28;;;;;;;2.07;0.90;;;2.30;99.90;;;;;;4992345;28;20302;-58
2022/01/30 05:55:54;;;;;;;2.00;0.80;;;2.40;99.90;;;;;;4991737;28;20990;-57
2022/01/30 05:58:20;;;;;;;1.67;0.80;;;2.40;99.90;;;;;;4974892;28;20192;-59
2022/01/30 06:00:46;;;;;;;4.03;0.83;;;2.40;99.90;;;;;;4991817;28;20600;-59
2022/01/30 06:03:11;;;;;;;1.37;0.73;;;2.40;99.90;;;;;;4992035;28;20184;-60
2022/01/30 06:05:38;;;;;;;3.90;0.70;;;2.30;99.90;;;;;;4992722;28;20196;-60
2022/01/30 06:08:17;;;;;;;3.83;0.70;;;2.30;99.90;;;;;;4991758;28;20181;-59
2022/01/30 06:10:43;;;;;;;3.77;1.20;;;2.30;99.90;;;;;;4991596;28;20341;-60
2022/01/30 06:13:08;;;;;;;4.10;1.20;;;2.20;99.90;;;;;;4995222;28;20679;-59
2022/01/30 06:15:34;;;;;;;2.40;0.90;;;2.10;99.90;;;;;;4994190;28;20303;-58
2022/01/30 06:18:00;;;;;;;1.97;0.90;;;2.00;99.90;;;;;;5011015;28;20245;-58
2022/01/30 06:20:25;;;;;;;5.10;1.20;;;1.90;99.90;;;;;;5011444;28;20214;-61
2022/01/30 06:22:51;;;;;;;0.73;0.40;;;1.90;99.90;;;;;;5011588;28;20271;-60
2022/01/30 06:25:17;;;;;;;2.87;1.00;;;2.00;99.90;;;;;;4993767;28;20628;-61
2022/01/30 06:27:43;;;;;;;3.13;0.97;;;2.10;99.90;;;;;;5011333;28;20183;-60
2022/01/30 06:30:09;;;;;;;2.20;0.80;;;2.10;99.90;;;;;;5011174;28;20215;-59
2022/01/30 06:32:35;;;;;;;3.33;1.27;;;2.20;99.90;;;;;;5011729;28;20183;-58
2022/01/30 06:35:02;;;;;;;3.57;1.10;;;2.30;99.90;;;;;;5011110;28;20239;-59
2022/01/30 06:37:28;;;;;;;7.03;1.50;;;2.40;99.90;;;;;;5011470;28;20203;-60
2022/01/30 06:39:53;;;;;;;7.03;1.47;;;2.40;99.90;;;;;;5007255;28;20212;-60
2022/01/30 06:42:19;;;;;;;10.67;1.60;;;2.50;99.90;;;;;;4973987;28;20185;-60
2022/01/30 06:44:45;;;;;;;1.83;0.80;;;2.50;99.90;;;;;;4991227;28;20621;-57
2022/01/30 06:47:12;;;;;;;4.83;1.30;;;2.70;99.90;;;;;;4991582;28;20184;-57
2022/01/30 06:49:38;;;;;;;4.40;1.27;;;2.80;99.90;;;;;;4975694;28;20306;-56
2022/01/30 06:52:06;;;;;;;2.80;1.23;;;2.90;99.90;;;;;;4976782;28;20275;-59
2022/01/30 06:54:32;;;;;;;4.33;1.00;;;3.00;99.90;;;;;;4977159;28;20235;-60
2022/01/30 06:56:58;;;;;;;3.80;1.20;;;3.10;99.90;;;;;;4994306;28;20541;-60
2022/01/30 06:59:23;;;;;;;11.37;2.83;;;3.10;99.90;;;;;;4994958;28;20283;-59
2022/01/30 07:01:52;;;;;;;5.33;1.50;;;3.20;99.90;;;;;;4977363;28;20184;-57
2022/01/30 07:04:18;;;;;;;4.87;0.80;;;3.20;99.90;;;;;;4994984;28;20267;-60
2022/01/30 07:06:44;;;;;;;15.23;1.60;;;3.20;99.80;;;;;;4994411;28;20275;-61
2022/01/30 07:09:09;;;;;;;7.63;1.00;;;3.30;99.70;;;;;;4994427;28;20216;-60
2022/01/30 07:11:35;;;;;;;12.60;3.10;;;3.20;99.70;;;;;;4977311;28;20629;-59
2022/01/30 07:14:01;;;;;;;16.13;2.87;;;3.20;99.90;;;;;;5004156;28;20187;-57
2022/01/30 07:16:27;;;;;;;5.17;2.37;;;3.10;99.90;;;;;;5014384;28;20187;-57
2022/01/30 07:18:53;;;;;;;6.47;1.80;;;2.90;99.90;;;;;;5013769;28;20286;-56
2022/01/30 07:21:19;;;;;;;6.27;1.60;;;2.70;99.90;;;;;;5013946;28;20289;-58
2022/01/30 07:23:45;;;;;;;10.70;2.33;;;2.60;99.90;;;;;;4996475;28;20275;-59
2022/01/30 07:26:11;;;;;;;4.83;1.40;;;2.70;99.90;;;;;;5013908;28;20241;-60
2022/01/30 07:28:36;;;;;;;5.60;1.57;;;2.80;99.90;;;;;;5013775;28;20225;-60
2022/01/30 07:31:02;;;;;;;4.13;1.63;;;3.00;99.90;;;;;;5013579;28;20207;-58
2022/01/30 07:33:28;;;;;;;2.83;1.33;;;3.20;99.90;;;;;;5010029;28;20221;-59
2022/01/30 07:35:56;;;;;;;3.70;1.00;;;3.20;99.90;;;;;;4993602;28;20598;-59
2022/01/30 07:38:22;;;;;;;6.37;1.10;;;3.30;99.90;;;;;;4993956;28;20192;-59
2022/01/30 07:40:49;;;;;;;4.43;1.10;;;3.40;99.90;;;;;;5003499;28;20476;-56
2022/01/30 07:43:16;;;;;;;2.83;0.90;;;3.40;99.90;;;;;;5013689;28;20627;-57
2022/01/30 07:45:41;;;;;;;7.10;1.33;;;3.40;99.70;;;;;;5013855;28;20184;-57
2022/01/30 07:48:07;;;;;;;1.07;0.70;;;3.30;99.90;;;;;;5012930;28;20184;-59
2022/01/30 07:50:33;;;;;;;8.27;2.37;;;3.20;99.90;;;;;;5013393;28;20585;-59
2022/01/30 07:52:58;;;;;;;5.27;1.10;;;3.10;99.90;;;;;;5013076;28;20713;-57
2022/01/30 07:55:24;;;;;;;3.20;1.00;;;3.20;99.90;;;;;;5012963;28;20232;-58
2022/01/30 07:57:50;;;;;;;6.53;1.37;;;3.20;99.90;;;;;;4995593;28;20278;-59
2022/01/30 08:00:17;;;;;;;3.87;1.90;;;3.40;99.90;;;;;;5011942;28;20638;-59
2022/01/30 08:02:43;;;;;;;4.70;1.73;;;3.30;99.90;;;;;;5012932;28;20666;-57
2022/01/30 08:05:09;;;;;;;3.43;1.57;;;3.40;99.90;;;;;;5012865;28;20179;-59
2022/01/30 08:07:35;;;;;;;8.43;2.90;;;3.60;99.50;;;;;;5013134;28;20207;-61
2022/01/30 08:10:00;;;;;;;4.07;1.77;;;3.80;99.20;;;;;;5012743;28;20622;-59
2022/01/30 08:12:26;;;;;;;5.97;1.80;;;4.00;98.90;;;;;;5012931;28;20187;-60
2022/01/30 08:14:52;;;;;;;4.77;1.50;;;4.10;98.70;;;;;;4994901;28;20200;-59
2022/01/30 08:17:21;;;;;;;5.57;1.70;;;4.30;98.50;;;;;;4976207;28;20325;-57
2022/01/30 08:19:50;;;;;;;8.27;2.07;;;4.60;98.00;;;;;;4992767;28;20279;-60
2022/01/30 08:22:15;;;;;;;6.07;2.00;;;4.90;97.80;;;;;;4992992;28;20277;-60
2022/01/30 08:24:41;;;;;;;5.23;1.90;;;4.90;97.40;;;;;;4993318;28;20270;-57
2022/01/30 08:27:07;;;;;;;4.23;1.67;;;4.90;97.50;;;;;;4992688;28;20265;-60
2022/01/30 08:29:33;;;;;;;6.00;1.73;;;4.90;97.70;;;;;;4992915;28;20271;-58
2022/01/30 08:31:59;;;;;;;6.40;1.87;;;5.00;97.70;;;;;;4992498;28;20234;-56
2022/01/30 08:34:26;;;;;;;9.30;1.80;;;5.40;97.80;;;;;;4993056;28;20283;-58
2022/01/30 08:36:52;;;;;;;5.10;1.47;;;5.40;97.40;;;;;;4993305;28;20185;-59
2022/01/30 08:39:18;;;;;;;5.30;2.27;;;5.30;97.60;;;;;;4992997;28;20228;-56
2022/01/30 08:41:44;;;;;;;6.20;2.43;;;5.10;97.80;;;;;;5011162;28;20634;-66
2022/01/30 08:44:10;;;;;;;5.53;1.63;;;5.10;98.00;;;;;;4994683;28;20269;-59
2022/01/30 08:46:36;;;;;;;9.27;2.00;;;5.00;97.90;;;;;;5012610;28;20590;-57
2022/01/30 08:49:02;;;;;;;4.07;1.50;;;4.90;97.80;;;;;;5011771;28;20338;-58
2022/01/30 08:51:28;;;;;;;8.97;2.20;;;5.00;97.80;;;;;;5012373;28;20217;-59
2022/01/30 08:53:54;;;;;;;6.60;2.10;;;4.90;97.90;;;;;;5011735;28;20182;-59
2022/01/30 08:56:23;;;;;;;7.80;2.40;;;4.90;98.20;;;;;;5012451;28;20317;-58
2022/01/30 08:58:49;;;;;;;2.87;1.33;;;4.90;98.20;;;;;;5011948;28;20193;-60
2022/01/30 09:01:15;;;;;;;2.83;1.07;;;5.10;97.70;;;;;;5012389;28;20188;-60
2022/01/30 09:03:43;;;;;;;6.80;1.20;;;5.20;97.30;;;;;;5012182;28;20190;-58
2022/01/30 09:06:09;;;;;;;1.87;1.13;;;5.40;97.50;;;;;;5011993;28;20181;-60
2022/01/30 09:08:35;;;;;;;2.40;1.00;;;5.50;96.70;;;;;;5012450;28;20215;-57
2022/01/30 09:11:01;;;;;;;3.03;1.47;;;5.50;96.60;;;;;;5011632;28;20183;-59
2022/01/30 09:13:27;;;;;;;6.80;2.10;;;5.30;96.60;;;;;;5006230;28;20250;-57
2022/01/30 09:15:57;;;;;;;11.23;3.70;;;5.20;96.70;;;;;;4992137;28;20266;-60
2022/01/30 09:18:25;;;;;;;11.30;3.50;;;5.30;96.70;;;;;;4992031;28;20257;-60
2022/01/30 09:20:51;;;;;;;13.43;3.37;;;5.20;96.60;;;;;;4991791;28;20304;-60
2022/01/30 09:23:17;;;;;;;5.50;2.30;;;5.20;96.70;;;;;;4991644;28;20191;-57
2022/01/30 09:25:43;;;;;;;4.07;1.70;;;5.30;96.60;;;;;;4991956;28;20216;-61
2022/01/30 09:28:08;;;;;;;9.60;1.47;;;5.30;96.40;;;;;;4991668;28;20297;-57
2022/01/30 09:30:35;;;;;;;3.43;1.50;;;5.30;96.40;;;;;;4991882;28;20635;-60
2022/01/30 09:33:00;;;;;;;4.07;1.40;;;5.30;96.30;;;;;;4991707;28;20200;-57
2022/01/30 09:35:26;;;;;;;6.27;2.17;;;5.30;96.20;;;;;;4974811;28;20178;-58
2022/01/30 09:37:52;;;;;;;6.03;1.87;;;5.20;96.10;;;;;;4991338;28;20194;-60
2022/01/30 09:40:18;;;;;;;10.27;2.00;;;5.30;96.20;;;;;;4998500;28;20542;-60
2022/01/30 09:42:46;;;;;;;3.87;1.80;;;5.30;96.30;;;;;;5011539;28;20191;-64
2022/01/30 09:45:13;;;;;;;6.23;1.83;;;5.40;96.30;;;;;;5011443;28;20173;-59
2022/01/30 09:47:40;;;;;;;5.80;1.67;;;5.40;96.20;;;;;;5011324;28;20195;-59
2022/01/30 09:50:08;;;;;;;3.70;1.40;;;5.50;95.90;;;;;;5011095;28;20687;-59
2022/01/30 09:52:34;;;;;;;7.27;2.90;;;5.50;96.00;;;;;;5011804;28;20198;-62
2022/01/30 09:54:59;;;;;;;8.37;2.10;;;5.50;96.00;;;;;;4993624;28;20234;-59
2022/01/30 09:57:25;;;;;;;2.97;1.23;;;5.50;96.00;;;;;;5011246;28;20186;-59
2022/01/30 09:59:51;;;;;;;5.67;2.00;;;5.60;95.90;;;;;;5002862;28;20280;-61
2022/01/30 10:02:18;;;;;;;5.33;1.67;;;5.60;95.80;;;;;;4983261;28;20202;-59
2022/01/30 10:04:44;;;;;;;4.27;1.10;;;5.70;95.60;;;;;;5000490;28;20196;-64
2022/01/30 10:07:13;;;;;;;3.73;1.63;;;5.70;95.20;;;;;;4984886;28;20225;-59
2022/01/30 10:09:45;;;;;;;5.80;1.90;;;5.80;95.50;;;;;;4994550;28;20223;-63
2022/01/30 10:12:16;;;;;;;7.80;2.00;;;5.80;95.60;;;;;;4999537;28;20567;-60
2022/01/30 10:14:59;;;;;;;6.73;2.20;;;5.80;95.80;;;;;;4999624;28;20187;-60
2022/01/30 10:17:48;;;;;;;7.73;3.00;;;5.70;95.90;;;;;;4994633;28;20216;-60
2022/01/30 10:20:17;;;;;;;7.63;3.00;;;5.70;96.10;;;;;;4992059;28;20192;-61
2022/01/30 10:22:56;;;;;;;4.30;1.77;;;5.70;96.00;;;;;;5004765;28;20567;-61
2022/01/30 10:25:25;;;;;;;3.70;1.67;;;5.70;96.00;;;;;;4983458;28;20278;-58
2022/01/30 10:28:14;;;;;;;6.57;2.30;;;5.70;95.70;;;;;;4994851;28;20191;-61
2022/01/30 10:30:49;;;;;;;5.90;1.83;;;5.70;95.70;;;;;;4994786;28;20204;-63
2022/01/30 10:33:17;;;;;;;5.80;2.30;;;5.80;95.70;;;;;;4995224;28;20191;-60
2022/01/30 10:35:51;;;;;;;6.73;2.00;;;5.80;95.90;;;;;;4995181;28;20191;-60
2022/01/30 10:38:20;;;;;;;9.80;2.83;;;5.80;96.00;;;;;;5008019;28;20269;-60
2022/01/30 10:41:30;;;;;;;10.67;5.30;;;5.90;96.40;;;;;;5005393;28;20226;-61
2022/01/30 10:43:56;;;;;;;9.60;2.40;;;6.00;96.10;;;;;;4999659;28;20222;-67
2022/01/30 10:46:40;;;;;;;11.17;2.63;;;6.00;96.00;;;;;;4994283;28;20715;-61
2022/01/30 10:49:11;;;;;;;5.47;1.93;;;6.10;96.10;;;;;;4993557;28;20218;-67
2022/01/30 10:51:38;;;;;;;5.10;1.87;;;6.20;96.00;;;;;;5013738;28;20180;-60
2022/01/30 10:54:10;;;;;;;10.27;1.87;;;6.30;95.70;;;;;;5013140;28;20242;-60
2022/01/30 10:56:36;;;;;;;4.27;1.80;;;6.40;95.50;;;;;;4994900;28;20172;-59
2022/01/30 10:59:06;;;;;;;6.73;1.73;;;6.50;95.30;;;;;;4994385;28;20246;-61
2022/01/30 11:01:32;;;;;;;7.43;1.70;;;6.90;95.00;;;;;;4994371;28;20180;-60
2022/01/30 11:04:00;;;;;;;9.67;1.80;;;7.50;93.60;;;;;;4993962;28;20190;-59
2022/01/30 11:06:28;;;;;;;4.17;1.13;;;7.80;92.90;;;;;;4976915;28;20192;-59
2022/01/30 11:09:05;;;;;;;7.00;2.40;;;7.90;93.00;;;;;;4994577;28;20238;-60
2022/01/30 11:11:36;;;;;;;4.20;1.30;;;8.10;92.90;;;;;;4994760;28;20221;-57
2022/01/30 11:19:19;;;;;;;6.93;1.53;;;8.70;90.60;;;;;;4994451;28;20230;-62
2022/01/30 11:21:52;;;;;;;1.90;0.93;;;8.20;90.10;;;;;;4993722;28;20286;-64
2022/01/30 11:24:19;;;;;;;10.37;2.10;;;8.10;89.60;;;;;;4994287;28;20592;-59
2022/01/30 11:26:46;;;;;;;8.67;2.40;;;8.00;90.40;;;;;;4993893;28;20261;-62
2022/01/30 11:29:15;;;;;;;7.87;2.20;;;7.90;90.00;;;;;;4993869;28;20271;-62
2022/01/30 11:31:41;;;;;;;7.45;1.98;;;7.90;90.60;;;;;;4975873;28;20438;-62
2022/01/30 11:34:07;;;;;;;6.00;1.87;;;8.00;90.20;;;;;;4993593;28;20193;-61
2022/01/30 11:36:39;;;;;;;5.53;1.70;;;8.00;88.80;;;;;;4993707;28;20641;-62
2022/01/30 11:39:12;;;;;;;14.60;2.70;;;8.00;88.80;;;;;;4993940;28;20189;-61
2022/01/30 11:41:39;;;;;;;6.57;1.27;;;7.90;87.70;;;;;;4976247;28;20186;-63
2022/01/30 11:44:19;;;;;;;32.00;2.73;;;7.70;86.70;;;;;;4956613;28;20186;-62
2022/01/30 11:46:59;;;;;;;10.77;2.37;;;7.80;88.10;;;;;;4973869;28;20205;-63
2022/01/30 11:50:00;;;;;;;7.33;2.07;;;8.00;86.80;;;;;;4974008;28;20258;-60
2022/01/30 11:52:46;;;;;;;8.13;2.47;;;7.90;86.60;;;;;;4945984;28;20288;-58
2022/01/30 11:55:39;;;;;;;5.97;2.77;;;8.10;85.80;;;;;;4983739;28;20232;-61
2022/01/30 11:58:05;;;;;;;4.83;1.83;;;8.00;85.10;;;;;;4992638;28;20307;-60
2022/01/30 12:00:41;;;;;;;6.10;2.37;;;7.90;84.60;;;;;;4975558;28;20279;-57
2022/01/30 12:03:22;;;;;;;4.93;1.50;;;7.90;85.10;;;;;;4990706;28;20657;-60
2022/01/30 12:05:48;;;;;;;14.43;2.60;;;7.90;85.20;;;;;;5011117;28;20195;-62
2022/01/30 12:08:42;;;;;;;5.33;1.70;;;7.90;85.30;;;;;;5012395;28;20189;-62
2022/01/30 12:11:39;;;;;;;4.03;1.97;;;7.80;84.90;;;;;;5011704;28;20246;-58
2022/01/30 12:14:43;;;;;;;4.47;1.67;;;7.90;85.60;;;;;;5009905;28;20183;-60
2022/01/30 12:17:09;;;;;;;3.37;1.60;;;8.00;84.80;;;;;;4994755;28;20563;-60
2022/01/30 12:19:36;;;;;;;4.40;1.10;;;8.20;84.00;;;;;;5011509;28;20216;-62
2022/01/30 12:22:28;;;;;;;7.60;1.00;;;8.40;83.50;;;;;;5011852;28;20263;-60
2022/01/30 12:25:39;;;;;;;3.33;1.20;;;8.60;83.70;;;;;;5001538;28;20189;-59
2022/01/30 12:28:06;;;;;;;12.17;1.70;;;8.80;83.20;;;;;;5009233;28;20355;-59
2022/01/30 12:30:39;;;;;;;12.63;1.80;;;8.80;82.90;;;;;;5012624;28;20649;-60
2022/01/30 12:33:31;;;;;;;4.60;1.30;;;8.80;83.10;;;;;;5011933;28;20217;-61
2022/01/30 12:35:58;;;;;;;4.90;0.90;;;8.50;82.10;;;;;;5012034;28;20181;-60
2022/01/30 12:38:33;;;;;;;3.93;0.90;;;8.00;82.80;;;;;;5012387;28;20176;-60
2022/01/30 12:40:58;;;;;;;3.20;0.90;;;7.70;83.90;;;;;;5011846;28;20205;-60
2022/01/30 12:43:31;;;;;;;1.60;0.90;;;7.60;83.80;;;;;;5012060;28;20188;-59
2022/01/30 12:46:24;;;;;;;1.23;0.70;;;7.30;83.60;;;;;;5011774;28;20215;-58
2022/01/30 12:49:02;;;;;;;1.63;0.90;;;7.10;84.60;;;;;;5008366;28;20239;-60
2022/01/30 12:51:28;;;;;;;1.60;1.00;;;7.00;85.40;;;;;;5012288;28;20211;-58
2022/01/30 12:53:55;;;;;;;1.50;0.80;;;7.40;84.90;;;;;;5011574;28;20595;-58
2022/01/30 12:56:23;;;;;;;2.30;1.20;;;7.60;83.60;;;;;;5012223;28;20620;-59
2022/01/30 12:58:53;;;;;;;3.37;1.10;;;8.10;82.80;;;;;;5012136;28;20188;-60
2022/01/30 13:01:25;;;;;;;2.63;0.90;;;8.10;82.50;;;;;;4992070;28;20181;-59
2022/01/30 13:04:11;;;;;;;0.87;0.60;;;7.70;82.60;;;;;;4992350;28;20275;-60
2022/01/30 13:06:43;;;;;;;11.23;1.53;;;7.20;82.70;;;;;;4992324;28;20600;-60
2022/01/30 13:09:10;;;;;;;3.20;1.07;;;7.10;83.50;;;;;;4991960;28;20742;-59
2022/01/30 13:11:36;;;;;;;4.17;1.00;;;7.00;82.40;;;;;;4992405;28;20184;-60
2022/01/30 13:14:07;;;;;;;3.60;1.20;;;6.90;83.20;;;;;;5002113;28;20249;-58
2022/01/30 13:16:37;;;;;;;5.77;1.50;;;7.00;83.80;;;;;;4994362;28;20179;-59
2022/01/30 13:19:06;;;;;;;4.50;1.40;;;7.00;84.80;;;;;;5011567;28;20278;-59
2022/01/30 13:21:33;;;;;;;9.77;1.70;;;7.10;85.30;;;;;;5011625;28;20527;-62
2022/01/30 13:24:01;;;;;;;4.47;1.40;;;7.10;89.40;;;;;;5011281;28;20187;-59
2022/01/30 13:26:37;;;;;;;2.73;1.23;;;7.10;88.90;;;;;;4994245;28;20187;-62
2022/01/30 13:29:11;;;;;;;3.73;0.93;;;7.20;88.30;;;;;;5011574;28;20667;-62
2022/01/30 13:31:38;;;;;;;3.87;1.27;;;7.30;88.80;;;;;;5011679;28;20582;-62
2022/01/30 13:34:27;;;;;;;5.50;1.27;;;7.30;90.00;;;;;;4993601;28;20222;-60
2022/01/30 13:37:00;;;;;;;6.60;1.60;;;7.30;90.30;;;;;;5011799;28;20180;-60
2022/01/30 13:39:34;;;;;;;7.33;2.00;;;7.30;90.80;;;;;;5010594;28;20187;-61
2022/01/30 13:48:13;;;;;;;3.47;1.90;;;10.50;84.50;;;;;;4991797;28;20180;-60
2022/01/30 13:50:43;;;;;;;8.87;2.50;;;10.60;81.00;;;;;;4991277;28;20743;-59
2022/01/30 13:53:21;;;;;;;9.03;2.77;;;9.80;82.60;;;;;;4990451;28;20176;-61
2022/01/30 13:55:56;;;;;;;9.43;1.70;;;8.80;84.40;;;;;;4976198;28;20337;-61
2022/01/30 13:58:43;;;;;;;3.30;1.33;;;7.90;85.70;;;;;;4971151;28;20212;-61
2022/01/30 14:01:14;;;;;;;4.40;1.57;;;7.30;87.50;;;;;;4974610;28;20668;-62
2022/01/30 14:03:42;;;;;;;6.17;1.30;;;6.90;88.30;;;;;;4974816;28;20652;-62
2022/01/30 14:06:26;;;;;;;4.77;1.30;;;6.60;88.40;;;;;;4975500;28;20185;-62
2022/01/30 14:09:00;;;;;;;5.60;1.30;;;6.40;88.30;;;;;;4975968;28;20319;-60
2022/01/30 14:11:28;;;;;;;3.67;0.93;;;6.20;88.20;;;;;;4976180;28;20195;-58
2022/01/30 14:13:58;;;;;;;4.50;1.00;;;6.10;86.90;;;;;;4984875;28;20211;-61
2022/01/30 14:16:34;;;;;;;8.37;1.30;;;6.00;87.60;;;;;;4995732;28;20199;-60